Flight Track Log - Related Links

Times and Time Zones

All times are in EDT time to prevent confusion due to time zone crossing. See the SWA542 flight status page for this flight to view local times or setup timezone preferences in your user account.

Time Position Orientation Groundspeed Altitude Reporting Facility
EDT Latitude Longitude Course Direction KTS MPH feet Rate Location/Type
Sun 11:34:41 AM 28.4333 -81.3000 348° North 160 184 700  Level Orlando TRACON
Sun 11:35:54 AM 28.5000 -81.3167 348° North 198 228 3,700 2,864 Climbing Orlando TRACON
Sun 11:36:53 AM 28.5500 -81.3333 344° North 240 276 7,000 2,263 Climbing Orlando TRACON
Sun 11:37:48 AM 28.5667 -81.4000 286° West 258 297 8,000 626 Climbing Orlando TRACON
Sun 11:38:48 AM 28.5667 -81.4667 270° West 262 302 8,200 1,846 Climbing Orlando TRACON
Sun 11:41:03 AM 28.4947 -81.6761 249° West 299 344 14,000 2,738 Climbing Jacksonville Center
Sun 11:42:03 AM 28.4581 -81.7781 248° West 325 374 17,100 2,950 Climbing Jacksonville Center
Sun 11:43:03 AM 28.4339 -81.8917 256° West 348 400 19,900 2,650 Climbing Jacksonville Center
Sun 11:44:03 AM 28.4181 -82.0100 261° West 368 423 22,400 2,350 Climbing Jacksonville Center
Sun 11:45:03 AM 28.3981 -82.1281 259° West 386 444 24,600 2,050 Climbing Jacksonville Center
Sun 11:46:03 AM 28.3800 -82.2556 261° West 399 459 26,500 1,700 Climbing Jacksonville Center
Sun 11:47:03 AM 28.3597 -82.3878 260° West 416 479 28,000 1,450 Climbing Jacksonville Center
Sun 11:48:03 AM 28.3497 -82.5200 265° West 421 484 29,400 1,900 Climbing Jacksonville Center
Sun 11:49:03 AM 28.3667 -82.6497 278° West 421 484 31,800 2,400 Climbing Jacksonville Center
Sun 11:50:03 AM 28.3836 -82.7747 279° West 421 484 34,200 2,050 Climbing Jacksonville Center
Sun 11:51:03 AM 28.4003 -82.8925 279° West 409 471 35,900 1,500 Climbing Jacksonville Center
Sun 11:52:03 AM 28.4192 -83.0131 280° West 397 457 37,200 1,050 Climbing Jacksonville Center
Sun 11:53:03 AM 28.4294 -83.1286 276° West 384 442 38,000 400 Climbing Jacksonville Center
Sun 11:54:03 AM 28.4478 -83.2467 280° West 384 442 38,000  Level Jacksonville Center
Sun 11:55:03 AM 28.4642 -83.3672 279° West 384 442 38,000  Level Jacksonville Center
Sun 11:56:03 AM 28.4783 -83.4853 278° West 384 442 38,000  Level Jacksonville Center
Sun 11:57:03 AM 28.4922 -83.5989 278° West 384 442 38,000  Level Jacksonville Center
Sun 11:58:03 AM 28.5083 -83.7194 279° West 384 442 38,000  Level Jacksonville Center
Sun 11:59:03 AM 28.5242 -83.8400 279° West 390 449 38,000  Level Jacksonville Center
Sun 12:00:03 PM 28.5358 -83.9347 278° West 390 449 38,000  Level Jacksonville Center
Sun 12:01:03 PM 28.5517 -84.0600 278° West 383 441 38,000  Level Jacksonville Center
Sun 12:02:03 PM 28.5672 -84.1808 278° West 383 441 38,000  Level Jacksonville Center
Sun 12:03:03 PM 28.5825 -84.2992 278° West 388 447 38,000  Level Jacksonville Center
Sun 12:04:03 PM 28.5978 -84.4225 278° West 388 447 38,000  Level Jacksonville Center
Sun 12:05:03 PM 28.6111 -84.5361 278° West 388 447 38,000  Level Jacksonville Center
Sun 12:06:03 PM 28.6261 -84.6544 278° West 382 440 38,000  Level Jacksonville Center
Sun 12:07:03 PM 28.6411 -84.7683 279° West 377 434 38,000  Level Jacksonville Center
Sun 12:08:03 PM 28.6542 -84.8869 277° West 372 428 38,000  Level Jacksonville Center
Sun 12:09:03 PM 28.6689 -85.0008 278° West 372 428 38,000 500 Level Jacksonville Center
Sun 12:10:03 PM 28.6836 -85.1264 278° West 372 428 39,000 950 Climbing Jacksonville Center
Sun 12:11:03 PM 28.6983 -85.2381 279° West 372 428 39,900 500 Climbing Jacksonville Center
Sun 12:12:03 PM 28.7128 -85.3567 278° West 367 422 40,000 50 Climbing Jacksonville Center
Sun 12:13:03 PM 28.7228 -85.4753 276° West 372 428 40,000  Level Jacksonville Center
Sun 12:14:03 PM 28.7392 -85.5917 279° West 372 428 40,000  Level Jacksonville Center
Sun 12:15:03 PM 28.7514 -85.7081 277° West 372 428 40,000  Level Jacksonville Center
Sun 12:16:03 PM 28.7633 -85.8269 277° West 372 428 40,000  Level Jacksonville Center
Sun 12:17:03 PM 28.7772 -85.9433 278° West 372 428 40,000  Level Jacksonville Center
Sun 12:18:03 PM 28.7931 -86.0622 279° West 372 428 40,000  Level Jacksonville Center
Sun 12:19:03 PM 28.8047 -86.1811 276° West 372 428 40,000  Level Jacksonville Center
Sun 12:20:03 PM 28.8164 -86.3000 276° West 372 428 40,000  Level Jacksonville Center
Sun 12:21:03 PM 28.8319 -86.4214 278° West 377 434 40,000  Level Jacksonville Center
Sun 12:22:03 PM 28.8411 -86.5378 275° West 377 434 40,000  Level Jacksonville Center
Sun 12:23:03 PM 28.8583 -86.6592 279° West 383 441 40,000  Level Jacksonville Center
Sun 12:24:03 PM 28.8694 -86.7758 276° West 383 441 40,000  Level Jacksonville Center
Sun 12:25:03 PM 28.8828 -86.8925 277° West 383 441 40,000  Level Jacksonville Center
Sun 12:26:03 PM 28.8956 -87.0139 277° West 378 435 40,000  Level Jacksonville Center
Sun 12:27:03 PM 28.9042 -87.1281 275° West 378 435 40,000  Level Jacksonville Center
Sun 12:28:58 PM 28.9264 -87.3342 277° West 376 433 40,000  Level Houston Center
Sun 12:30:00 PM 28.9406 -87.4789 276° West 381 438 40,000  Level Houston Center
Sun 12:31:02 PM 28.9522 -87.6000 276° West 384 442 40,000  Level Houston Center
Sun 12:32:04 PM 28.9647 -87.7225 277° West 387 445 40,000  Level Houston Center
Sun 12:33:06 PM 28.9758 -87.8433 276° West 385 443 40,000  Level Houston Center
Sun 12:34:09 PM 28.9881 -87.9631 277° West 382 440 40,000  Level Houston Center
Sun 12:35:11 PM 28.9997 -88.0961 276° West 384 442 40,000  Level Houston Center
Sun 12:36:13 PM 29.0122 -88.2175 277° West 385 443 40,000  Level Houston Center
Sun 12:37:15 PM 29.0283 -88.3358 279° West 380 437 40,000  Level Houston Center
Sun 12:38:17 PM 29.0433 -88.4578 278° West 386 444 40,000  Level Houston Center
Sun 12:39:19 PM 29.0614 -88.6011 278° West 382 440 40,000  Level Houston Center
Sun 12:40:21 PM 29.0767 -88.7236 278° West 387 445 40,000  Level Houston Center
Sun 12:41:23 PM 29.0914 -88.8444 278° West 385 443 40,000  Level Houston Center
Sun 12:42:25 PM 29.1061 -88.9672 278° West 387 445 40,000  Level Houston Center
Sun 12:43:27 PM 29.1208 -89.0892 278° West 387 445 40,000  Level Houston Center
Sun 12:44:29 PM 29.1353 -89.2111 278° West 387 445 40,000  Level Houston Center
Sun 12:45:31 PM 29.1519 -89.3567 278° West 384 442 40,000  Level Houston Center
Sun 12:46:34 PM 29.1664 -89.4786 278° West 385 443 40,000  Level Houston Center
Sun 12:47:36 PM 29.1800 -89.5989 277° West 382 440 40,000  Level Houston Center
Sun 12:48:38 PM 29.1936 -89.7208 277° West 387 445 40,000  Level Houston Center
Sun 12:49:40 PM 29.2083 -89.8442 278° West 389 448 40,000  Level Houston Center
Sun 12:50:42 PM 29.2219 -89.9669 277° West 389 448 40,000  Level Houston Center
Sun 12:51:44 PM 29.2389 -90.1150 278° West 391 450 40,000  Level Houston Center
Sun 12:52:46 PM 29.2522 -90.2369 277° West 387 445 40,000  Level Houston Center
Sun 12:53:48 PM 29.2664 -90.3628 277° West 395 455 40,000  Level Houston Center
Sun 12:54:50 PM 29.2797 -90.4850 277° West 390 449 40,000  Level Houston Center
Sun 12:55:52 PM 29.2931 -90.6081 277° West 390 449 40,000  Level Houston Center
Sun 12:56:55 PM 29.3056 -90.7297 277° West 386 444 40,000  Level Houston Center
Sun 12:57:57 PM 29.3203 -90.8522 278° West 389 448 40,000  Level Houston Center
Sun 12:58:59 PM 29.3353 -90.9978 277° West 386 444 40,000  Level Houston Center
Sun 01:00:01 PM 29.3483 -91.1206 277° West 386 444 40,000  Level Houston Center
Sun 01:01:03 PM 29.3603 -91.2425 276° West 387 445 40,000  Level Houston Center
Sun 01:02:05 PM 29.3733 -91.3644 277° West 386 444 40,000  Level Houston Center
Sun 01:03:07 PM 29.3856 -91.4869 277° West 387 445 40,000  Level Houston Center
Sun 01:04:09 PM 29.3975 -91.6094 276° West 387 445 40,000  Level Houston Center
Sun 01:05:11 PM 29.4117 -91.7478 277° West 386 444 40,000  Level Houston Center
Sun 01:06:13 PM 29.4231 -91.8700 276° West 387 445 40,000  Level Houston Center
Sun 01:07:16 PM 29.4358 -91.9914 277° West 385 443 40,000  Level Houston Center
Sun 01:08:18 PM 29.4475 -92.1139 276° West 386 444 40,000  Level Houston Center
Sun 01:09:20 PM 29.4625 -92.2600 277° West 385 443 40,000  Level Houston Center
Sun 01:10:22 PM 29.4728 -92.3819 276° West 385 443 40,000  Level Houston Center
Sun 01:11:24 PM 29.4858 -92.5033 277° West 385 443 40,000  Level Houston Center
Sun 01:12:26 PM 29.4967 -92.6244 276° West 383 441 40,000  Level Houston Center
Sun 01:13:28 PM 29.5075 -92.7447 276° West 380 437 40,000 -48 Level Houston Center
Sun 01:14:30 PM 29.5189 -92.8644 276° West 377 434 39,900  Descending Houston Center
Sun 01:15:32 PM 29.5314 -93.0100 276° West 380 437 40,000 48 Climbing Houston Center
Sun 01:16:34 PM 29.5422 -93.1292 276° West 377 434 40,000  Level Houston Center
Sun 01:17:36 PM 29.5531 -93.2486 276° West 376 433 40,000  Level Houston Center
Sun 01:18:39 PM 29.5636 -93.3683 276° West 376 433 40,000  Level Houston Center
Sun 01:19:41 PM 29.5736 -93.4908 275° West 382 440 40,000  Level Houston Center
Sun 01:20:43 PM 29.5839 -93.6103 276° West 377 434 40,000  Level Houston Center
Sun 01:21:45 PM 29.5964 -93.7569 276° West 382 440 40,000  Level Houston Center
Sun 01:22:47 PM 29.6064 -93.8778 275° West 379 436 40,000  Level Houston Center
Sun 01:23:49 PM 29.6167 -93.9983 276° West 380 437 40,000  Level Houston Center
Sun 01:24:51 PM 29.6264 -94.1189 275° West 379 436 40,000  Level Houston Center
Sun 01:25:53 PM 29.6372 -94.2433 276° West 378 435 40,000  Level Houston Center
Sun 01:26:55 PM 29.6469 -94.3633 275° West 379 436 40,000  Level Houston Center
Sun 01:27:57 PM 29.6564 -94.4825 275° West 376 433 40,000  Level Houston Center
Sun 01:29:00 PM 29.6672 -94.6258 275° West 377 434 40,000  Level Houston Center
Sun 01:30:02 PM 29.6772 -94.7461 275° West 379 436 40,000  Level Houston Center
Sun 01:31:04 PM 29.6861 -94.8642 275° West 375 432 40,000  Level Houston Center
Sun 01:32:06 PM 29.6956 -94.9839 275° West 378 435 40,000  Level Houston Center
Sun 01:33:08 PM 29.7047 -95.1033 275° West 379 436 40,000  Level Houston Center
Sun 01:34:10 PM 29.7125 -95.2250 274° West 382 440 40,000  Level Houston Center
Sun 01:35:12 PM 29.7233 -95.3633 275° West 380 437 40,000  Level Houston Center
Sun 01:36:14 PM 29.7317 -95.4836 275° West 380 437 40,000  Level Houston Center
Sun 01:37:16 PM 29.7400 -95.6036 275° West 379 436 40,000  Level Houston Center
Sun 01:38:19 PM 29.7489 -95.7478 274° West 378 435 40,000  Level Houston Center
Sun 01:39:21 PM 29.7567 -95.8694 274° West 380 437 40,000  Level Houston Center
Sun 01:40:23 PM 29.7656 -95.9911 275° West 383 441 40,000  Level Houston Center
Sun 01:41:25 PM 29.7753 -96.1247 275° West 381 438 40,000  Level Houston Center
Sun 01:42:27 PM 29.7831 -96.2442 274° West 377 434 40,000  Level Houston Center
Sun 01:43:29 PM 29.7919 -96.3650 275° West 379 436 40,000 -97 Level Houston Center
Sun 01:44:31 PM 29.8019 -96.4853 276° West 380 437 39,800 -1,161 Descending Houston Center
Sun 01:45:33 PM 29.8100 -96.6006 275° West 369 425 37,600 -2,613 Descending Houston Center
Sun 01:46:35 PM 29.8214 -96.7411 275° West 371 427 34,400 -2,855 Descending Houston Center
Sun 01:47:37 PM 29.8300 -96.8631 275° West 385 443 31,700 -2,419 Descending Houston Center
Sun 01:48:39 PM 29.8375 -96.9856 274° West 388 447 29,400 -2,177 Descending Houston Center
Sun 01:49:41 PM 29.8469 -97.1036 275° West 376 433 27,200 -2,064 Descending Houston Center
Sun 01:50:44 PM 29.8550 -97.2194 275° West 367 422 25,100 -2,256 Descending Houston Center
Sun 01:51:46 PM 29.8633 -97.3533 274° West 352 405 22,500 -2,177 Descending Houston Center
Sun 01:52:48 PM 29.8711 -97.4592 275° West 337 388 20,600 -1,855 Descending Houston Center
Sun 01:53:36 PM 29.8758 -97.5414 274° West 320 368 19,100 -1,857 Descending Houston Center
Sun 01:54:12 PM 29.8803 -97.6061 275° West 312 359 18,000 -1,974 Descending Houston Center
Sun 01:54:52 PM 29.8844 -97.6739 274° West 313 360 16,600 -2,361 Descending Houston Center
Sun 01:55:13 PM 29.8858 -97.7067 273° West 313 360 15,600 -2,419 Descending Houston Center
Sun 01:55:54 PM 29.8914 -97.7786 275° West 326 375 14,100 -2,149 Descending Houston Center
Sun 01:56:20 PM 29.8953 -97.8258 275° West 328 377 13,200 -2,129 Descending Houston Center
Sun 01:56:56 PM 29.8908 -97.8811 265° West 323 372 11,900 -2,066 Descending Houston Center
Sun 01:57:21 PM 29.8714 -97.9253 243° Southwest 337 388 11,100 -1,355 Descending Houston Center
Sun 01:57:58 PM 29.8472 -97.9811 243° Southwest 323 372 10,500 -1,100 Descending Houston Center
Sun 01:58:21 PM 29.8336 -98.0144 245° Southwest 309 356 10,000 -1,452 Descending Houston Center
Sun 01:59:00 PM 29.8081 -98.0642 239° Southwest 299 344 9,000 -1,475 Descending Houston Center
Sun 01:59:22 PM 29.7792 -98.0839 211° Southwest 305 351 8,500 -1,258 Descending Houston Center
Sun 02:00:02 PM 29.7300 -98.1194 212° Southwest 302 348 7,700 -1,180 Descending Houston Center
Sun 02:00:23 PM 29.7086 -98.1361 214° Southwest 300 345 7,300 -1,238 Descending Houston Center
Sun 02:01:05 PM 29.6606 -98.1669 209° Southwest 291 335 6,400 -1,279 Descending Houston Center
Sun 02:01:24 PM 29.6394 -98.1831 214° Southwest 287 330 6,000 -387 Descending Houston Center
Sun 02:02:07 PM 29.5850 -98.2069 201° Southwest 277 319 6,000  Level Houston Center
Sun 02:02:31 PM 29.5586 -98.2169 198° South 261 300 6,000 -581 Level Houston Center
Sun 02:03:09 PM 29.5208 -98.2356 203° Southwest 250 288 5,400 -1,522 Descending Houston Center
Sun 02:03:38 PM 29.4903 -98.2494 202° Southwest 248 285 4,300 -1,355 Descending Houston Center
Sun 02:04:11 PM 29.4536 -98.2689 205° Southwest 261 300 4,000 -400 Descending Houston Center
Sun 02:04:38 PM 29.4242 -98.2839 204° Southwest 246 283 3,900 -581 Descending Houston Center
Sun 02:05:13 PM 29.3919 -98.3017 206° Southwest 226 260 3,400 -885 Descending Houston Center
Sun 02:05:39 PM 29.3906 -98.3286 267° West 190 219 3,000 -387 Descending Houston Center
Sun 02:06:15 PM 29.4133 -98.3422 333° Northwest 177 204 3,000  Level Houston Center
Sun 02:06:34 PM 29.4242 -98.3511 324° Northwest 158 182 3,000 -97 Level Houston Center
Sun 02:07:17 PM 29.4544 -98.3714 330° Northwest 162 186 2,900 -358 Descending Houston Center
Sun 02:07:41 PM 29.4653 -98.3869 309° West 163 188 2,600 -774 Descending Houston Center
Sun 02:08:19 PM 29.4850 -98.4106 314° West 164 189 2,100 -764 Descending Houston Center
Sun 02:09:31 PM 29.5153 -98.4503 311° West 131 151 1,200 -624 Descending Houston Center
Sun 02:10:24 PM 29.5383 -98.4775 314° West 134 154 800 -453 Descending Houston Center

Login

Don't have an account? Register now (free) for customized features, flight alerts, and more!